Data Viewer
| City | State | Eastern Time | Source | Temp | DewPt | RH | BP | 5 Min Precip | Wind Speed | Wind Dir | 5 Min Wind Max | 5 Min Wind Max Dir |
|---|---|---|---|---|---|---|---|---|---|---|---|---|
| New York JFK | NY | 2026-05-09 18:51 | ASOS | 56 | 53 | 90 | 29.85 | 6 | E | |||
| New York JFK | NY | 2026-05-10 13:00 | ASOS | 61 | 55 | 82 | 29.93 | 6 | S | |||
| New York JFK | NY | 2026-05-10 12:25 | ASOS | 61 | 54 | 77 | 29.94 | 5 | SW | |||
| New York JFK | NY | 2026-05-10 12:27 | ASOS | 61 | 55 | 81 | 29.94 | 6 | WSW | |||
| New York JFK | NY | 2026-05-10 12:30 | ASOS | 61 | 54 | 77 | 29.94 | 5 | WNW | |||
| New York JFK | NY | 2026-05-10 12:35 | ASOS | 61 | 54 | 77 | 29.94 | 3 | SW | |||
| New York JFK | NY | 2026-05-10 12:40 | ASOS | 61 | 55 | 82 | 29.94 | 3 | SSW | |||
| New York JFK | NY | 2026-05-10 12:45 | ASOS | 61 | 55 | 82 | 29.94 | 7 | SW | |||
| New York JFK | NY | 2026-05-10 12:50 | ASOS | 63 | 55 | 77 | 29.94 | 7 | SSW | |||
| New York JFK | NY | 2026-05-10 12:51 | ASOS | 61 | 55 | 81 | 29.94 | 7 | SW | |||
| New York JFK | NY | 2026-05-10 12:55 | ASOS | 61 | 54 | 77 | 29.93 | 6 | S | |||
| New York JFK | NY | 2026-05-10 13:05 | ASOS | 63 | 55 | 77 | 29.93 | 6 | S | |||
| New York JFK | NY | 2026-05-10 12:15 | ASOS | 61 | 55 | 82 | 29.94 | 5 | W | |||
| New York JFK | NY | 2026-05-10 13:10 | ASOS | 63 | 55 | 77 | 29.93 | 6 | SSW | |||
| New York JFK | NY | 2026-05-10 13:15 | ASOS | 63 | 55 | 77 | 29.93 | 7 | SSW | |||
| New York JFK | NY | 2026-05-10 13:20 | ASOS | 63 | 55 | 77 | 29.93 | 7 | SSW | |||
| New York JFK | NY | 2026-05-10 13:25 | ASOS | 63 | 55 | 77 | 29.93 | 6 | S | |||
| New York JFK | NY | 2026-05-10 13:30 | ASOS | 63 | 55 | 77 | 29.93 | 7 | S | |||
| New York JFK | NY | 2026-05-10 13:35 | ASOS | 63 | 55 | 77 | 29.93 | 6 | S | |||
| New York JFK | NY | 2026-05-10 13:40 | ASOS | 63 | 55 | 77 | 29.93 | 5 | SSW | |||
| New York JFK | NY | 2026-05-10 13:45 | ASOS | 64 | 55 | 73 | 29.93 | 6 | SSW | |||
| New York JFK | NY | 2026-05-10 13:50 | ASOS | 64 | 55 | 73 | 29.93 | 9 | SSW | |||
| New York JFK | NY | 2026-05-10 12:20 | ASOS | 61 | 54 | 77 | 29.94 | 5 | SW | |||
| New York JFK | NY | 2026-05-10 12:10 | ASOS | 61 | 55 | 82 | 29.94 | 6 | SSW | |||
| New York JFK | NY | 2026-05-10 14:00 | ASOS | 64 | 55 | 73 | 29.93 | 9 | S | |||
| New York JFK | NY | 2026-05-10 11:10 | ASOS | 57 | 55 | 94 | 29.95 | 6 | SW | |||
| New York JFK | NY | 2026-05-10 10:05 | ASOS | 55 | 55 | 100 | 29.93 | 6 | S | |||
| New York JFK | NY | 2026-05-10 10:15 | ASOS | 55 | 55 | 100 | 29.94 | 5 | SSE | |||
| New York JFK | NY | 2026-05-10 10:20 | ASOS | 55 | 55 | 100 | 29.94 | 5 | WSW | |||
| New York JFK | NY | 2026-05-10 10:25 | ASOS | 55 | 55 | 100 | 29.95 | 7 | W | |||
| New York JFK | NY | 2026-05-10 10:30 | ASOS | 55 | 55 | 100 | 29.95 | 3 | WSW | |||
| New York JFK | NY | 2026-05-10 10:40 | ASOS | 56 | 55 | 97 | 29.95 | 6 | WSW | |||
| New York JFK | NY | 2026-05-10 10:50 | ASOS | 57 | 55 | 94 | 29.94 | 6 | SSW | |||
| New York JFK | NY | 2026-05-10 10:51 | ASOS | 58 | 55 | 90 | 29.94 | 7 | SSW | |||
| New York JFK | NY | 2026-05-10 11:00 | ASOS | 57 | 55 | 94 | 29.95 | 6 | S | |||
| New York JFK | NY | 2026-05-10 11:15 | ASOS | 57 | 54 | 88 | 29.95 | 6 | SSW | |||
| New York JFK | NY | 2026-05-10 12:05 | ASOS | 57 | 54 | 88 | 29.94 | 3 | S | |||
| New York JFK | NY | 2026-05-10 11:20 | ASOS | 57 | 55 | 94 | 29.95 | 5 | SSW | |||
| New York JFK | NY | 2026-05-10 11:25 | ASOS | 57 | 55 | 94 | 29.95 | 7 | SW | |||
| New York JFK | NY | 2026-05-10 11:30 | ASOS | 57 | 54 | 88 | 29.95 | 6 | S | |||
| New York JFK | NY | 2026-05-10 11:35 | ASOS | 57 | 54 | 88 | 29.95 | 6 | SW | |||
| New York JFK | NY | 2026-05-10 11:40 | ASOS | 57 | 55 | 94 | 29.95 | 6 | WSW | |||
| New York JFK | NY | 2026-05-10 11:45 | ASOS | 57 | 54 | 88 | 29.94 | 6 | SSW | |||
| New York JFK | NY | 2026-05-10 11:50 | ASOS | 57 | 55 | 94 | 29.95 | 3 | SW | |||
| New York JFK | NY | 2026-05-10 11:51 | ASOS | 58 | 55 | 90 | 29.95 | 3 | ||||
| New York JFK | NY | 2026-05-10 11:55 | ASOS | 59 | 55 | 88 | 29.95 | 5 | WSW | |||
| New York JFK | NY | 2026-05-10 12:00 | ASOS | 59 | 54 | 82 | 29.94 | 6 | SW | |||
| New York JFK | NY | 2026-05-10 13:51 | ASOS | 64 | 55 | 73 | 29.93 | 8 | SSW | |||
| New York JFK | NY | 2026-05-10 14:05 | ASOS | 64 | 55 | 73 | 29.93 | 9 | S | |||
| New York JFK | NY | 2026-05-10 09:55 | ASOS | 55 | 55 | 100 | 29.94 | 0 | N | |||
| New York JFK | NY | 2026-05-10 16:55 | ASOS | 63 | 55 | 77 | 29.93 | 12 | S | |||
| New York JFK | NY | 2026-05-10 16:15 | ASOS | 63 | 55 | 77 | 29.92 | 8 | SSE | |||
| New York JFK | NY | 2026-05-10 16:20 | ASOS | 63 | 55 | 77 | 29.91 | 7 | SSE | |||
| New York JFK | NY | 2026-05-10 16:25 | ASOS | 63 | 55 | 77 | 29.92 | 7 | SSE | |||
| New York JFK | NY | 2026-05-10 16:30 | ASOS | 63 | 55 | 77 | 29.92 | 10 | S | |||
| New York JFK | NY | 2026-05-10 16:35 | ASOS | 63 | 55 | 77 | 29.92 | 13 | S | |||
| New York JFK | NY | 2026-05-10 16:40 | ASOS | 63 | 55 | 77 | 29.92 | 13 | S | |||
| New York JFK | NY | 2026-05-10 16:45 | ASOS | 63 | 55 | 77 | 29.92 | 12 | S | |||
| New York JFK | NY | 2026-05-10 16:50 | ASOS | 63 | 55 | 77 | 29.93 | 13 | S | |||
| New York JFK | NY | 2026-05-10 16:51 | ASOS | 63 | 55 | 75 | 29.93 | 13 | S | |||
| New York JFK | NY | 2026-05-10 17:00 | ASOS | 63 | 54 | 72 | 29.93 | 9 | S | |||
| New York JFK | NY | 2026-05-10 16:05 | ASOS | 63 | 55 | 77 | 29.92 | 9 | SSE | |||
| New York JFK | NY | 2026-05-10 17:10 | ASOS | 63 | 54 | 72 | 29.93 | 9 | S | |||
| New York JFK | NY | 2026-05-10 17:15 | ASOS | 63 | 55 | 77 | 29.93 | 9 | S | |||
| New York JFK | NY | 2026-05-10 17:20 | ASOS | 63 | 55 | 77 | 29.93 | 7 | S | |||
| New York JFK | NY | 2026-05-10 17:25 | ASOS | 63 | 55 | 77 | 29.93 | 7 | S | |||
| New York JFK | NY | 2026-05-10 17:30 | ASOS | 63 | 55 | 77 | 29.93 | 8 | S | |||
| New York JFK | NY | 2026-05-10 17:35 | ASOS | 63 | 55 | 77 | 29.93 | 5 | S | |||
| New York JFK | NY | 2026-05-10 17:40 | ASOS | 63 | 55 | 77 | 29.93 | 3 | S | |||
| New York JFK | NY | 2026-05-10 17:45 | ASOS | 63 | 55 | 77 | 29.94 | 3 | S | |||
| New York JFK | NY | 2026-05-10 17:50 | ASOS | 64 | 55 | 73 | 29.94 | 0 | N | |||
| New York JFK | NY | 2026-05-10 17:51 | ASOS | 64 | 56 | 75 | 29.94 | 0 | N | |||
| New York JFK | NY | 2026-05-10 16:10 | ASOS | 61 | 55 | 82 | 29.92 | 8 | SSE | |||
| New York JFK | NY | 2026-05-10 16:00 | ASOS | 61 | 55 | 82 | 29.92 | 8 | SSE | |||
| New York JFK | NY | 2026-05-10 14:15 | ASOS | 63 | 55 | 77 | 29.93 | 8 | S | |||
| New York JFK | NY | 2026-05-10 15:00 | ASOS | 64 | 55 | 73 | 29.93 | 6 | SSW | |||
| New York JFK | NY | 2026-05-10 14:20 | ASOS | 63 | 55 | 77 | 29.94 | 7 | S | |||
| New York JFK | NY | 2026-05-10 14:25 | ASOS | 63 | 55 | 77 | 29.93 | 7 | SSW | |||
| New York JFK | NY | 2026-05-10 14:30 | ASOS | 64 | 55 | 73 | 29.93 | 8 | S | |||
| New York JFK | NY | 2026-05-10 14:35 | ASOS | 64 | 55 | 73 | 29.93 | 7 | S | |||
| New York JFK | NY | 2026-05-10 14:40 | ASOS | 64 | 55 | 73 | 29.93 | 8 | S | |||
| New York JFK | NY | 2026-05-10 14:45 | ASOS | 64 | 55 | 73 | 29.93 | 8 | S | |||
| New York JFK | NY | 2026-05-10 14:50 | ASOS | 64 | 55 | 73 | 29.93 | 8 | SSW | |||
| New York JFK | NY | 2026-05-10 14:51 | ASOS | 64 | 54 | 70 | 29.93 | 7 | SSW | |||
| New York JFK | NY | 2026-05-10 14:55 | ASOS | 64 | 54 | 68 | 29.93 | 7 | S | |||
| New York JFK | NY | 2026-05-10 15:05 | ASOS | 64 | 55 | 73 | 29.92 | 5 | S | |||
| New York JFK | NY | 2026-05-10 15:55 | ASOS | 61 | 55 | 82 | 29.93 | 9 | S | |||
| New York JFK | NY | 2026-05-10 15:10 | ASOS | 64 | 55 | 73 | 29.92 | 6 | SSE | |||
| New York JFK | NY | 2026-05-10 15:15 | ASOS | 64 | 55 | 73 | 29.92 | 5 | S | |||
| New York JFK | NY | 2026-05-10 15:20 | ASOS | 64 | 55 | 73 | 29.93 | 7 | SSW | |||
| New York JFK | NY | 2026-05-10 15:25 | ASOS | 64 | 55 | 73 | 29.93 | 7 | SSW | |||
| New York JFK | NY | 2026-05-10 15:30 | ASOS | 64 | 55 | 73 | 29.92 | 5 | SSW | |||
| New York JFK | NY | 2026-05-10 15:35 | ASOS | 64 | 55 | 73 | 29.92 | 7 | S | |||
| New York JFK | NY | 2026-05-10 15:40 | ASOS | 64 | 55 | 73 | 29.92 | 8 | S | |||
| New York JFK | NY | 2026-05-10 15:45 | ASOS | 64 | 55 | 73 | 29.92 | 8 | SSE | |||
| New York JFK | NY | 2026-05-10 15:50 | ASOS | 63 | 55 | 77 | 29.92 | 7 | SSE | |||
| New York JFK | NY | 2026-05-10 15:51 | ASOS | 63 | 56 | 78 | 29.92 | 8 | SSE | |||
| New York JFK | NY | 2026-05-10 10:00 | ASOS | 55 | 55 | 100 | 29.93 | 5 | S | |||
| New York JFK | NY | 2026-05-10 09:51 | ASOS | 55 | 55 | 100 | 29.94 | 0 | N | |||
| New York JFK | NY | 2026-05-09 22:05 | ASOS | 54 | 52 | 94 | 29.87 | 5 | E | |||
| New York JFK | NY | 2026-05-10 04:51 | ASOS | 52 | 52 | 100 | 29.89 | 0 | N | |||
| New York JFK | NY | 2026-05-10 04:05 | ASOS | 52 | 52 | 100 | 29.88 | 5 | NNE | |||
| New York JFK | NY | 2026-05-10 04:10 | ASOS | 52 | 52 | 100 | 29.88 | 5 | N | |||
| New York JFK | NY | 2026-05-10 04:15 | ASOS | 52 | 52 | 100 | 29.88 | 6 | N | |||
| New York JFK | NY | 2026-05-10 04:20 | ASOS | 52 | 52 | 100 | 29.88 | 5 | N | |||
| New York JFK | NY | 2026-05-10 04:25 | ASOS | 52 | 52 | 100 | 29.88 | 6 | N | |||
| New York JFK | NY | 2026-05-10 04:30 | ASOS | 52 | 52 | 100 | 29.88 | 6 | N | |||
| New York JFK | NY | 2026-05-10 04:35 | ASOS | 52 | 52 | 100 | 29.88 | 3 | NNE | |||
| New York JFK | NY | 2026-05-10 04:40 | ASOS | 52 | 52 | 100 | 29.88 | 0 | N | |||
| New York JFK | NY | 2026-05-10 04:45 | ASOS | 52 | 52 | 100 | 29.89 | 0 | N | |||
| New York JFK | NY | 2026-05-10 05:00 | ASOS | 52 | 52 | 100 | 29.90 | 13 | NNW | |||
| New York JFK | NY | 2026-05-10 03:55 | ASOS | 52 | 52 | 100 | 29.87 | 6 | NE | |||
| New York JFK | NY | 2026-05-10 05:05 | ASOS | 52 | 52 | 100 | 29.90 | 8 | N | |||
| New York JFK | NY | 2026-05-10 05:10 | ASOS | 52 | 52 | 100 | 29.90 | 13 | N | |||
| New York JFK | NY | 2026-05-10 05:15 | ASOS | 52 | 52 | 100 | 29.90 | 12 | N | |||
| New York JFK | NY | 2026-05-10 05:20 | ASOS | 52 | 52 | 100 | 29.90 | 12 | N | |||
| New York JFK | NY | 2026-05-10 05:25 | ASOS | 52 | 52 | 100 | 29.90 | 10 | N | |||
| New York JFK | NY | 2026-05-10 05:30 | ASOS | 52 | 52 | 100 | 29.90 | 13 | N | |||
| New York JFK | NY | 2026-05-10 05:35 | ASOS | 52 | 52 | 100 | 29.90 | 12 | N | |||
| New York JFK | NY | 2026-05-10 05:40 | ASOS | 52 | 52 | 100 | 29.90 | 13 | N | |||
| New York JFK | NY | 2026-05-10 05:45 | ASOS | 52 | 52 | 100 | 29.89 | 14 | N | |||
| New York JFK | NY | 2026-05-10 05:50 | ASOS | 52 | 52 | 100 | 29.89 | 12 | N | |||
| New York JFK | NY | 2026-05-10 04:00 | ASOS | 52 | 52 | 100 | 29.88 | 5 | N | |||
| New York JFK | NY | 2026-05-10 03:51 | ASOS | 52 | 52 | 100 | 29.87 | 6 | NNE | |||
| New York JFK | NY | 2026-05-10 05:55 | ASOS | 52 | 52 | 100 | 29.89 | 10 | N | |||
| New York JFK | NY | 2026-05-10 02:55 | ASOS | 52 | 52 | 100 | 29.86 | 3 | NE | |||
| New York JFK | NY | 2026-05-10 02:15 | ASOS | 52 | 52 | 100 | 29.87 | 0 | N | |||
| New York JFK | NY | 2026-05-10 02:20 | ASOS | 52 | 52 | 100 | 29.87 | 3 | E | |||
| New York JFK | NY | 2026-05-10 02:25 | ASOS | 52 | 52 | 100 | 29.86 | 3 | E | |||
| New York JFK | NY | 2026-05-10 02:30 | ASOS | 52 | 52 | 100 | 29.86 | 0 | N | |||
| New York JFK | NY | 2026-05-10 02:35 | ASOS | 52 | 52 | 100 | 29.86 | 0 | N | |||
| New York JFK | NY | 2026-05-10 02:40 | ASOS | 52 | 52 | 100 | 29.86 | 3 | E | |||
| New York JFK | NY | 2026-05-10 02:45 | ASOS | 52 | 52 | 100 | 29.86 | 0 | N | |||
| New York JFK | NY | 2026-05-10 02:50 | ASOS | 52 | 52 | 100 | 29.86 | 0 | N | |||
| New York JFK | NY | 2026-05-10 02:51 | ASOS | 52 | 52 | 100 | 29.86 | 0 | N | |||
| New York JFK | NY | 2026-05-10 03:00 | ASOS | 52 | 52 | 100 | 29.87 | 0 | N | |||
| New York JFK | NY | 2026-05-10 03:50 | ASOS | 52 | 52 | 100 | 29.87 | 5 | NNE | |||
| New York JFK | NY | 2026-05-10 03:05 | ASOS | 52 | 52 | 100 | 29.87 | 6 | N | |||
| New York JFK | NY | 2026-05-10 03:10 | ASOS | 52 | 52 | 100 | 29.87 | 7 | N | |||
| New York JFK | NY | 2026-05-10 03:15 | ASOS | 54 | 52 | 94 | 29.87 | 8 | N | |||
| New York JFK | NY | 2026-05-10 03:20 | ASOS | 54 | 52 | 94 | 29.88 | 8 | N | |||
| New York JFK | NY | 2026-05-10 03:21 | ASOS | 53 | 52 | 96 | 29.88 | 8 | N | |||
| New York JFK | NY | 2026-05-10 03:25 | ASOS | 54 | 52 | 94 | 29.88 | 9 | N | |||
| New York JFK | NY | 2026-05-10 03:30 | ASOS | 52 | 52 | 100 | 29.87 | 8 | N | |||
| New York JFK | NY | 2026-05-10 03:35 | ASOS | 52 | 52 | 100 | 29.88 | 7 | N | |||
| New York JFK | NY | 2026-05-10 03:40 | ASOS | 52 | 52 | 100 | 29.87 | 6 | N | |||
| New York JFK | NY | 2026-05-10 03:45 | ASOS | 54 | 52 | 94 | 29.87 | 6 | NNE | |||
| New York JFK | NY | 2026-05-10 05:51 | ASOS | 51 | 51 | 100 | 29.89 | 10 | N | |||
| New York JFK | NY | 2026-05-10 06:00 | ASOS | 52 | 52 | 100 | 29.89 | 8 | NNE | |||
| New York JFK | NY | 2026-05-10 09:50 | ASOS | 55 | 55 | 100 | 29.94 | 0 | N | |||
| New York JFK | NY | 2026-05-10 08:51 | ASOS | 53 | 53 | 100 | 29.93 | 0 | N | |||
| New York JFK | NY | 2026-05-10 08:05 | ASOS | 52 | 52 | 100 | 29.92 | 5 | SSE | |||
| New York JFK | NY | 2026-05-10 08:15 | ASOS | 52 | 52 | 100 | 29.92 | 0 | N | |||
| New York JFK | NY | 2026-05-10 08:20 | ASOS | 52 | 52 | 100 | 29.92 | 0 | N | |||
| New York JFK | NY | 2026-05-10 08:25 | ASOS | 52 | 52 | 100 | 29.92 | 0 | N | |||
| New York JFK | NY | 2026-05-10 08:30 | ASOS | 54 | 54 | 100 | 29.92 | 0 | N | |||
| New York JFK | NY | 2026-05-10 08:35 | ASOS | 54 | 54 | 100 | 29.92 | 0 | N | |||
| New York JFK | NY | 2026-05-10 08:40 | ASOS | 54 | 54 | 100 | 29.92 | 0 | N | |||
| New York JFK | NY | 2026-05-10 08:45 | ASOS | 54 | 54 | 100 | 29.93 | 0 | N | |||
| New York JFK | NY | 2026-05-10 08:50 | ASOS | 54 | 54 | 100 | 29.93 | 0 | N | |||
| New York JFK | NY | 2026-05-10 08:55 | ASOS | 54 | 54 | 100 | 29.93 | 0 | N | |||
| New York JFK | NY | 2026-05-10 07:55 | ASOS | 52 | 52 | 100 | 29.91 | 3 | ENE | |||
| New York JFK | NY | 2026-05-10 09:00 | ASOS | 54 | 54 | 100 | 29.93 | 0 | N | |||
| New York JFK | NY | 2026-05-10 09:05 | ASOS | 54 | 54 | 100 | 29.93 | 0 | N | |||
| New York JFK | NY | 2026-05-10 09:10 | ASOS | 54 | 54 | 100 | 29.93 | 5 | ESE | |||
| New York JFK | NY | 2026-05-10 09:15 | ASOS | 54 | 54 | 100 | 29.93 | 5 | ESE | |||
| New York JFK | NY | 2026-05-10 09:20 | ASOS | 54 | 54 | 100 | 29.93 | 5 | SE | |||
| New York JFK | NY | 2026-05-10 09:25 | ASOS | 55 | 55 | 100 | 29.93 | 5 | SSE | |||
| New York JFK | NY | 2026-05-10 09:30 | ASOS | 55 | 54 | 94 | 29.93 | 6 | SE | |||
| New York JFK | NY | 2026-05-10 09:35 | ASOS | 55 | 55 | 100 | 29.94 | 6 | ESE | |||
| New York JFK | NY | 2026-05-10 09:40 | ASOS | 55 | 55 | 100 | 29.94 | 3 | ESE | |||
| New York JFK | NY | 2026-05-10 09:45 | ASOS | 55 | 55 | 100 | 29.94 | 0 | N | |||
| New York JFK | NY | 2026-05-10 08:00 | ASOS | 52 | 52 | 100 | 29.91 | 5 | ESE | |||
| New York JFK | NY | 2026-05-10 07:51 | ASOS | 52 | 52 | 100 | 29.91 | 3 | E | |||
| New York JFK | NY | 2026-05-10 06:05 | ASOS | 52 | 52 | 100 | 29.89 | 9 | NNE | |||
| New York JFK | NY | 2026-05-10 06:51 | ASOS | 52 | 51 | 97 | 29.90 | 8 | ENE | |||
| New York JFK | NY | 2026-05-10 06:10 | ASOS | 52 | 52 | 100 | 29.89 | 9 | NNE | |||
| New York JFK | NY | 2026-05-10 06:15 | ASOS | 52 | 52 | 100 | 29.89 | 9 | NNE | |||
| New York JFK | NY | 2026-05-10 06:20 | ASOS | 52 | 52 | 100 | 29.89 | 8 | NNE | |||
| New York JFK | NY | 2026-05-10 06:25 | ASOS | 52 | 52 | 100 | 29.89 | 8 | NE | |||
| New York JFK | NY | 2026-05-10 06:30 | ASOS | 52 | 52 | 100 | 29.89 | 9 | NE | |||
| New York JFK | NY | 2026-05-10 06:35 | ASOS | 52 | 52 | 100 | 29.89 | 8 | NNE | |||
| New York JFK | NY | 2026-05-10 06:40 | ASOS | 52 | 52 | 100 | 29.90 | 8 | NE | |||
| New York JFK | NY | 2026-05-10 06:45 | ASOS | 52 | 52 | 100 | 29.90 | 8 | ENE | |||
| New York JFK | NY | 2026-05-10 06:50 | ASOS | 52 | 52 | 100 | 29.90 | 7 | ENE | |||
| New York JFK | NY | 2026-05-10 06:55 | ASOS | 52 | 52 | 100 | 29.90 | 7 | NE | |||
| New York JFK | NY | 2026-05-10 07:50 | ASOS | 52 | 52 | 100 | 29.91 | 3 | E | |||
| New York JFK | NY | 2026-05-10 07:00 | ASOS | 52 | 52 | 100 | 29.89 | 8 | ENE | |||
| New York JFK | NY | 2026-05-10 07:05 | ASOS | 52 | 52 | 100 | 29.89 | 7 | NE | |||
| New York JFK | NY | 2026-05-10 07:10 | ASOS | 52 | 52 | 100 | 29.89 | 6 | E | |||
| New York JFK | NY | 2026-05-10 07:15 | ASOS | 52 | 52 | 100 | 29.90 | 6 | ENE | |||
| New York JFK | NY | 2026-05-10 07:20 | ASOS | 52 | 52 | 100 | 29.90 | 6 | E | |||
| New York JFK | NY | 2026-05-10 07:25 | ASOS | 52 | 52 | 100 | 29.90 | 5 | ENE | |||
| New York JFK | NY | 2026-05-10 07:30 | ASOS | 52 | 52 | 100 | 29.90 | 7 | E | |||
| New York JFK | NY | 2026-05-10 07:35 | ASOS | 52 | 52 | 100 | 29.90 | 7 | E | |||
| New York JFK | NY | 2026-05-10 07:40 | ASOS | 52 | 52 | 100 | 29.90 | 6 | ESE | |||
| New York JFK | NY | 2026-05-10 07:45 | ASOS | 52 | 52 | 100 | 29.91 | 6 | E | |||
| New York JFK | NY | 2026-05-10 17:55 | ASOS | 64 | 55 | 73 | 29.94 | 3 | WSW |
data collection created in 0.028599977493286 (queried in 0.005670) rendered in: 0.00037193298339844

